Time;durP1;ratioP1;P1;durP2;ratioP2;P2;SDS_P1;SDS_P2;PMS_P1;PMS_P2;Temp;Humidity;BMP_temperature;BMP_pressure;BME280_temperature;BME280_humidity;BME280_pressure;Samples;Min_cycle;Max_cycle;Signal;HPM_P1;HPM_P2
2022/05/17 00:00:54;;;;;;;23.80;13.90;;;15.10;99.90;;;;;;5030414;28;20460;-74
2022/05/17 00:03:21;;;;;;;22.33;12.47;;;15.00;99.90;;;;;;5012440;28;20869;-74
2022/05/17 00:05:48;;;;;;;18.00;12.40;;;15.00;99.90;;;;;;5014995;28;20778;-74
2022/05/17 00:08:18;;;;;;;17.17;11.93;;;15.00;99.90;;;;;;5014470;28;20512;-74
2022/05/17 00:10:45;;;;;;;22.10;13.00;;;14.90;99.90;;;;;;5043789;28;20445;-74
2022/05/17 00:13:12;;;;;;;17.40;12.80;;;14.90;99.90;;;;;;5013307;28;20466;-74
2022/05/17 00:15:41;;;;;;;30.07;15.27;;;14.80;99.90;;;;;;5016182;28;20490;-74
2022/05/17 00:18:11;;;;;;;29.70;13.80;;;14.70;99.90;;;;;;5013302;28;20836;-74
2022/05/17 00:20:38;;;;;;;25.40;13.17;;;14.70;99.90;;;;;;5015333;28;20497;-74
2022/05/17 00:23:07;;;;;;;24.13;13.00;;;14.70;99.90;;;;;;5032829;28;20897;-74
2022/05/17 00:25:36;;;;;;;20.70;12.70;;;14.70;99.90;;;;;;5032359;28;20454;-74
2022/05/17 00:28:03;;;;;;;16.50;12.20;;;14.70;99.90;;;;;;5033815;28;20450;-74
2022/05/17 00:30:31;;;;;;;21.73;11.80;;;14.60;99.90;;;;;;5027570;28;20480;-74
2022/05/17 00:32:57;;;;;;;15.23;11.47;;;14.60;99.90;;;;;;5024270;28;20470;-74
2022/05/17 00:35:24;;;;;;;19.53;12.30;;;14.60;99.90;;;;;;5029649;28;20461;-74
2022/05/17 00:37:51;;;;;;;19.73;12.70;;;14.60;99.90;;;;;;5025799;28;20455;-74
2022/05/17 00:40:18;;;;;;;15.90;11.50;;;14.60;99.90;;;;;;5021002;28;20866;-74
2022/05/17 00:42:46;;;;;;;21.90;12.17;;;14.50;99.90;;;;;;5015286;28;20487;-74
2022/05/17 00:45:12;;;;;;;18.40;12.87;;;14.50;99.90;;;;;;5017498;28;20861;-74
2022/05/17 00:47:43;;;;;;;16.80;11.60;;;14.50;99.90;;;;;;5031669;28;20446;-74
2022/05/17 00:50:16;;;;;;;21.93;12.50;;;14.40;99.90;;;;;;5041743;28;20456;-74
2022/05/17 00:52:46;;;;;;;18.87;13.03;;;14.40;99.90;;;;;;5033273;28;20900;-74
2022/05/17 00:55:18;;;;;;;22.60;12.07;;;14.40;99.90;;;;;;5028613;28;20512;-74
2022/05/17 00:57:50;;;;;;;19.20;12.53;;;14.30;99.90;;;;;;5013229;28;20557;-74
2022/05/17 01:00:19;;;;;;;19.00;12.57;;;14.30;99.90;;;;;;5015417;28;20447;-74
2022/05/17 01:02:50;;;;;;;17.77;12.70;;;14.20;99.90;;;;;;5021016;28;20489;-74
2022/05/17 01:05:18;;;;;;;18.93;12.40;;;14.20;99.90;;;;;;5024482;28;21015;-74
2022/05/17 01:07:49;;;;;;;23.17;12.50;;;14.20;99.90;;;;;;5021708;28;20526;-74
2022/05/17 01:10:16;;;;;;;15.80;11.20;;;14.20;99.90;;;;;;5015835;28;20457;-74
2022/05/17 01:12:42;;;;;;;18.00;12.30;;;14.20;99.90;;;;;;5032618;28;20547;-74
2022/05/17 01:15:11;;;;;;;19.10;11.57;;;14.10;99.90;;;;;;5020862;28;20500;-74
2022/05/17 01:17:41;;;;;;;16.77;12.30;;;14.10;99.90;;;;;;5031759;28;20477;-75
2022/05/17 01:20:11;;;;;;;19.23;12.27;;;14.10;99.90;;;;;;5030243;28;20446;-74
2022/05/17 01:22:39;;;;;;;20.20;11.60;;;14.00;99.90;;;;;;5012784;28;20558;-74
2022/05/17 01:25:07;;;;;;;19.07;12.40;;;14.00;99.90;;;;;;5011945;28;21005;-74
2022/05/17 01:27:38;;;;;;;24.30;13.20;;;14.00;99.90;;;;;;5029456;28;20476;-74
2022/05/17 01:30:06;;;;;;;22.03;12.83;;;14.00;99.90;;;;;;5027584;28;20508;-74
2022/05/17 01:32:34;;;;;;;17.43;12.17;;;14.00;99.90;;;;;;5020183;28;20523;-74
2022/05/17 01:35:01;;;;;;;19.40;12.40;;;13.90;99.90;;;;;;5031534;28;20453;-74
2022/05/17 01:37:27;;;;;;;18.60;12.60;;;13.90;99.90;;;;;;5032040;28;20547;-74
2022/05/17 01:39:55;;;;;;;18.13;12.23;;;13.80;99.90;;;;;;5018034;28;21024;-74
2022/05/17 01:42:22;;;;;;;24.03;13.60;;;13.80;99.90;;;;;;5012716;28;20472;-74
2022/05/17 01:44:48;;;;;;;20.03;12.87;;;13.80;99.90;;;;;;5023747;28;20453;-74
2022/05/17 01:47:15;;;;;;;16.23;12.97;;;13.70;99.90;;;;;;5017161;28;20982;-74
2022/05/17 01:49:42;;;;;;;20.17;13.17;;;13.70;99.90;;;;;;5025594;28;20464;-74
2022/05/17 01:52:09;;;;;;;22.83;12.97;;;13.70;99.90;;;;;;5011926;28;20466;-74
2022/05/17 01:54:36;;;;;;;19.87;13.70;;;13.60;99.90;;;;;;5011989;28;20454;-74
2022/05/17 01:57:05;;;;;;;19.83;14.00;;;13.60;99.90;;;;;;5012379;28;20540;-74
2022/05/17 01:59:33;;;;;;;24.83;13.77;;;13.60;99.90;;;;;;5013035;28;21039;-74
2022/05/17 02:02:00;;;;;;;19.93;12.73;;;13.50;99.90;;;;;;5015435;28;20569;-74
2022/05/17 02:04:26;;;;;;;24.97;14.50;;;13.50;99.90;;;;;;5031416;28;20503;-74
2022/05/17 02:06:53;;;;;;;23.50;13.60;;;13.50;99.90;;;;;;5031418;28;20453;-74
2022/05/17 02:09:20;;;;;;;27.73;14.50;;;13.40;99.90;;;;;;5019101;28;20462;-74
2022/05/17 02:11:46;;;;;;;23.13;13.50;;;13.50;99.90;;;;;;5028692;28;20481;-74
2022/05/17 02:14:14;;;;;;;24.60;14.07;;;13.40;99.90;;;;;;5030839;28;20503;-74
2022/05/17 02:16:42;;;;;;;20.30;13.57;;;13.40;99.90;;;;;;5017999;28;20926;-75
2022/05/17 02:19:08;;;;;;;27.33;14.97;;;13.40;99.90;;;;;;5012467;28;20802;-74
2022/05/17 02:21:36;;;;;;;19.17;12.90;;;13.30;99.90;;;;;;5026676;28;20567;-74
2022/05/17 02:24:03;;;;;;;29.27;15.20;;;13.30;99.90;;;;;;5011637;28;20446;-74
2022/05/17 02:26:30;;;;;;;25.70;15.90;;;13.20;99.90;;;;;;5025561;28;20476;-74
2022/05/17 02:28:56;;;;;;;24.50;14.27;;;13.20;99.90;;;;;;5027762;28;20458;-75
2022/05/17 02:31:24;;;;;;;24.27;13.40;;;13.20;99.90;;;;;;5016362;28;20528;-74
2022/05/17 02:33:51;;;;;;;26.43;16.13;;;13.20;99.90;;;;;;5030437;28;20457;-75
2022/05/17 02:36:18;;;;;;;21.40;14.07;;;13.20;99.90;;;;;;5031361;28;20880;-75
2022/05/17 02:38:44;;;;;;;25.50;15.23;;;13.20;99.90;;;;;;5029798;28;20499;-74
2022/05/17 02:41:12;;;;;;;26.00;14.23;;;13.20;99.90;;;;;;5031059;28;20472;-74
2022/05/17 02:43:39;;;;;;;24.47;15.23;;;13.20;99.90;;;;;;5029464;28;20520;-74
2022/05/17 02:46:07;;;;;;;19.50;13.70;;;13.10;99.90;;;;;;5018982;28;20453;-74
2022/05/17 02:48:35;;;;;;;19.50;14.03;;;13.10;99.90;;;;;;5024290;28;20463;-74
2022/05/17 02:51:09;;;;;;;22.83;15.10;;;13.10;99.90;;;;;;5026011;28;20457;-74
2022/05/17 02:53:36;;;;;;;17.67;13.80;;;13.10;99.90;;;;;;5030122;28;20542;-74
2022/05/17 02:56:02;;;;;;;20.27;14.03;;;13.10;99.90;;;;;;5030949;28;20504;-74
2022/05/17 02:58:29;;;;;;;19.43;14.07;;;13.10;99.90;;;;;;5030733;28;20449;-75
2022/05/17 03:00:56;;;;;;;21.80;13.87;;;13.10;99.90;;;;;;5026246;28;20453;-75
2022/05/17 03:03:23;;;;;;;24.80;13.70;;;13.10;99.90;;;;;;5030564;28;20449;-74
2022/05/17 03:05:51;;;;;;;19.63;13.70;;;13.10;99.90;;;;;;5030660;28;20508;-74
2022/05/17 03:08:18;;;;;;;22.27;13.87;;;13.10;99.90;;;;;;5026360;28;20457;-74
2022/05/17 03:10:45;;;;;;;21.80;14.07;;;13.00;99.90;;;;;;5019565;28;20464;-75
2022/05/17 03:13:12;;;;;;;22.63;14.20;;;13.00;99.90;;;;;;5030546;28;20893;-75
2022/05/17 03:15:39;;;;;;;18.40;13.53;;;13.00;99.90;;;;;;5029606;28;20970;-75
2022/05/17 03:18:05;;;;;;;19.53;14.60;;;13.00;99.90;;;;;;5018682;28;20999;-74
2022/05/17 03:20:32;;;;;;;32.30;16.30;;;13.00;99.90;;;;;;5013753;28;20497;-75
2022/05/17 03:23:00;;;;;;;23.50;16.10;;;12.90;99.90;;;;;;5011010;28;20470;-75
2022/05/17 03:25:28;;;;;;;22.07;14.83;;;12.90;99.90;;;;;;5023111;28;20461;-74
2022/05/17 03:27:55;;;;;;;19.60;14.83;;;12.90;99.90;;;;;;5024706;28;20832;-75
2022/05/17 03:30:22;;;;;;;21.17;13.87;;;12.90;99.90;;;;;;5012695;28;20450;-74
2022/05/17 03:32:48;;;;;;;27.50;15.27;;;12.90;99.90;;;;;;5021302;28;20490;-75
2022/05/17 03:35:15;;;;;;;34.47;14.33;;;12.90;99.90;;;;;;5010718;28;20508;-75
2022/05/17 03:37:42;;;;;;;24.00;14.47;;;12.80;99.90;;;;;;5011711;28;20482;-74
2022/05/17 03:40:11;;;;;;;25.90;15.07;;;12.80;99.90;;;;;;5022465;28;20882;-75
2022/05/17 03:42:38;;;;;;;24.70;15.43;;;12.80;99.90;;;;;;5033943;28;20473;-74
2022/05/17 03:45:07;;;;;;;18.67;14.00;;;12.80;99.90;;;;;;5027571;28;20503;-74
2022/05/17 03:47:34;;;;;;;20.30;12.87;;;12.70;99.90;;;;;;5020856;28;20457;-74
2022/05/17 03:50:02;;;;;;;19.83;12.40;;;12.70;99.90;;;;;;5024670;28;20598;-75
2022/05/17 03:52:30;;;;;;;22.10;12.57;;;12.60;99.90;;;;;;5014656;28;20474;-74
2022/05/17 03:54:58;;;;;;;22.17;11.87;;;12.50;99.90;;;;;;5032923;28;20457;-75
2022/05/17 03:57:27;;;;;;;14.97;11.20;;;12.50;99.90;;;;;;5033292;28;20531;-74
2022/05/17 03:59:54;;;;;;;21.33;12.30;;;12.40;99.90;;;;;;5033746;28;20477;-74
2022/05/17 04:02:21;;;;;;;16.47;12.70;;;12.30;99.90;;;;;;5016861;28;20891;-75
2022/05/17 04:04:51;;;;;;;20.23;13.73;;;12.30;99.90;;;;;;5029710;28;20856;-75
2022/05/17 04:07:18;;;;;;;18.53;13.40;;;12.30;99.90;;;;;;5017921;28;20870;-74
2022/05/17 04:09:44;;;;;;;32.83;14.57;;;12.30;99.90;;;;;;5021854;28;20517;-75
2022/05/17 04:12:11;;;;;;;26.80;14.53;;;12.30;99.90;;;;;;5035847;28;20554;-75
2022/05/17 04:14:39;;;;;;;24.63;16.10;;;12.30;99.90;;;;;;5033095;28;20457;-74
2022/05/17 04:17:06;;;;;;;24.37;15.50;;;12.30;99.90;;;;;;5017549;28;20919;-75
2022/05/17 04:19:33;;;;;;;21.27;15.50;;;12.30;99.90;;;;;;5017434;28;20508;-75
2022/05/17 04:21:59;;;;;;;25.77;16.73;;;12.30;99.90;;;;;;5025091;28;20488;-74
2022/05/17 04:24:26;;;;;;;22.50;15.90;;;12.40;99.90;;;;;;5032874;28;20457;-74
2022/05/17 04:26:53;;;;;;;24.23;15.67;;;12.50;99.90;;;;;;5031638;28;20548;-74
2022/05/17 04:29:20;;;;;;;17.53;14.40;;;12.50;99.90;;;;;;5013890;28;20508;-75
2022/05/17 04:31:48;;;;;;;23.73;15.00;;;12.50;99.90;;;;;;5025551;28;20994;-74
2022/05/17 04:34:15;;;;;;;22.80;14.43;;;12.60;99.90;;;;;;5030498;28;20965;-75
2022/05/17 04:36:41;;;;;;;19.77;14.40;;;12.60;99.90;;;;;;5013599;28;20450;-74
2022/05/17 04:39:08;;;;;;;19.80;15.17;;;12.60;99.90;;;;;;5031197;28;20457;-74
2022/05/17 04:41:35;;;;;;;26.83;15.33;;;12.70;99.90;;;;;;5022176;28;21061;-74
2022/05/17 04:44:01;;;;;;;23.53;13.90;;;12.70;99.90;;;;;;5012957;28;20501;-74
2022/05/17 04:46:28;;;;;;;22.73;15.20;;;12.80;99.90;;;;;;5013422;28;20512;-74
2022/05/17 04:48:56;;;;;;;19.83;14.90;;;12.90;99.90;;;;;;5028656;28;20445;-74
2022/05/17 04:51:23;;;;;;;21.53;14.60;;;13.00;99.90;;;;;;5021158;28;20543;-74
2022/05/17 04:53:49;;;;;;;22.47;16.10;;;13.10;99.90;;;;;;5022903;28;20801;-72
2022/05/17 04:56:16;;;;;;;21.50;16.10;;;13.20;99.90;;;;;;5019685;28;20485;-71
2022/05/17 04:58:43;;;;;;;23.70;16.57;;;13.40;99.90;;;;;;5027336;28;21269;-71
2022/05/17 05:01:09;;;;;;;18.80;14.97;;;13.50;99.90;;;;;;5034583;28;20555;-73
2022/05/17 05:03:36;;;;;;;20.60;14.70;;;13.70;99.90;;;;;;5014759;28;20520;-72
2022/05/17 05:06:04;;;;;;;17.50;14.90;;;13.80;99.90;;;;;;5013224;28;20462;-72
2022/05/17 05:08:31;;;;;;;19.57;15.60;;;13.90;99.90;;;;;;5027931;28;20500;-72
2022/05/17 05:10:58;;;;;;;23.40;15.30;;;14.10;99.90;;;;;;5031123;28;20462;-73
2022/05/17 05:13:25;;;;;;;23.70;15.90;;;14.20;99.90;;;;;;5030850;28;20463;-73
2022/05/17 05:15:54;;;;;;;23.57;16.60;;;14.30;99.90;;;;;;5035137;28;20465;-73
2022/05/17 05:18:20;;;;;;;24.90;16.20;;;14.50;99.90;;;;;;5027910;28;20512;-72
2022/05/17 05:20:47;;;;;;;17.57;14.73;;;14.60;99.90;;;;;;5034434;28;20502;-72
2022/05/17 05:23:15;;;;;;;23.00;16.50;;;14.70;99.90;;;;;;5051904;28;20514;-72
2022/05/17 05:25:42;;;;;;;26.13;15.90;;;14.90;99.90;;;;;;5050306;28;20506;-72
2022/05/17 05:28:09;;;;;;;20.60;16.07;;;14.90;99.90;;;;;;5052623;28;20494;-72
2022/05/17 05:30:36;;;;;;;31.03;18.10;;;15.00;99.90;;;;;;5052119;28;20452;-72
2022/05/17 05:33:03;;;;;;;25.27;18.70;;;15.10;99.90;;;;;;5012097;28;20466;-72
2022/05/17 05:35:32;;;;;;;18.37;15.10;;;15.20;99.90;;;;;;5012483;28;20454;-73
2022/05/17 05:37:59;;;;;;;25.00;17.07;;;15.20;99.90;;;;;;5012442;28;20872;-72
2022/05/17 05:40:27;;;;;;;24.27;17.10;;;15.10;99.90;;;;;;5020723;28;20457;-73
2022/05/17 05:42:54;;;;;;;21.97;17.50;;;15.00;99.90;;;;;;5032451;28;20469;-73
2022/05/17 05:45:21;;;;;;;23.13;18.17;;;15.00;99.90;;;;;;5031949;28;20449;-72
2022/05/17 05:47:48;;;;;;;22.07;17.03;;;15.20;99.90;;;;;;5032134;28;20802;-73
2022/05/17 05:50:15;;;;;;;40.37;23.47;;;15.30;99.90;;;;;;5032365;28;20442;-73
2022/05/17 05:52:41;;;;;;;23.93;16.03;;;15.30;99.90;;;;;;5037499;28;20472;-72
2022/05/17 05:55:15;;;;;;;22.13;16.10;;;15.30;99.90;;;;;;5049195;28;20898;-73
2022/05/17 05:57:43;;;;;;;25.13;15.70;;;15.20;99.90;;;;;;5031994;28;21004;-72
2022/05/17 06:00:11;;;;;;;28.43;17.70;;;15.20;99.90;;;;;;5031724;28;20460;-74
2022/05/17 06:02:38;;;;;;;26.77;17.10;;;15.30;99.90;;;;;;5031927;28;20477;-74
2022/05/17 06:05:06;;;;;;;20.90;14.27;;;15.40;99.90;;;;;;5031271;28;21004;-74
2022/05/17 06:07:34;;;;;;;27.70;16.20;;;15.60;99.90;;;;;;5036104;28;20499;-74
2022/05/17 06:10:01;;;;;;;27.10;14.70;;;15.70;99.90;;;;;;5051926;28;20460;-74
2022/05/17 06:12:27;;;;;;;16.20;12.73;;;15.80;99.90;;;;;;5049778;28;20488;-74
2022/05/17 06:14:55;;;;;;;14.47;12.77;;;15.90;99.90;;;;;;5050673;28;20525;-74
2022/05/17 06:17:27;;;;;;;16.20;13.30;;;15.90;99.90;;;;;;5035468;28;20453;-74
2022/05/17 06:19:54;;;;;;;17.70;13.17;;;16.10;99.90;;;;;;5037363;28;20839;-74
2022/05/17 06:22:20;;;;;;;16.40;14.03;;;16.30;99.90;;;;;;5042442;28;20465;-74
2022/05/17 06:24:47;;;;;;;16.77;12.23;;;16.40;99.90;;;;;;5050989;28;20514;-74
2022/05/17 06:27:14;;;;;;;17.27;14.80;;;16.70;99.90;;;;;;5051602;28;20832;-74
2022/05/17 06:29:40;;;;;;;18.57;14.80;;;17.00;99.90;;;;;;5051852;28;20456;-74
2022/05/17 06:32:11;;;;;;;27.00;14.10;;;17.30;99.90;;;;;;5051681;28;20476;-74
2022/05/17 06:34:38;;;;;;;20.33;13.57;;;17.60;99.90;;;;;;5050504;28;20456;-74
2022/05/17 06:37:05;;;;;;;20.10;14.20;;;17.90;99.90;;;;;;5050784;28;20965;-74
2022/05/17 06:39:32;;;;;;;17.90;13.53;;;18.10;99.90;;;;;;5031297;28;20993;-74
2022/05/17 06:41:59;;;;;;;21.50;13.80;;;18.30;99.90;;;;;;5031493;28;20789;-74
2022/05/17 06:44:26;;;;;;;16.20;13.50;;;18.30;99.90;;;;;;5031488;28;20427;-74
2022/05/17 06:46:54;;;;;;;22.33;13.93;;;18.30;99.90;;;;;;5038170;28;20468;-74
2022/05/17 06:49:22;;;;;;;18.83;14.00;;;18.40;99.90;;;;;;5031297;28;20518;-76
2022/05/17 06:51:49;;;;;;;27.13;16.27;;;18.50;99.90;;;;;;5034960;28;20509;-76
2022/05/17 06:54:16;;;;;;;30.03;14.20;;;18.50;99.90;;;;;;5033848;28;20473;-76
2022/05/17 06:56:42;;;;;;;20.60;15.00;;;18.60;99.90;;;;;;5034782;28;20451;-76
2022/05/17 06:59:09;;;;;;;33.37;14.70;;;18.70;99.90;;;;;;5031086;28;20898;-77
2022/05/17 07:01:36;;;;;;;24.37;14.13;;;18.80;99.90;;;;;;5031184;28;20960;-76
2022/05/17 07:04:02;;;;;;;26.57;14.97;;;18.90;99.90;;;;;;5030540;28;20436;-77
2022/05/17 07:06:30;;;;;;;25.83;14.20;;;19.00;99.90;;;;;;5031163;28;20454;-76
2022/05/17 07:08:57;;;;;;;21.83;14.07;;;19.00;99.90;;;;;;5041411;28;20424;-76
2022/05/17 07:14:08;;;;;;;18.63;12.63;;;19.20;99.90;;;;;;5033575;28;20465;-76
2022/05/17 07:16:35;;;;;;;24.13;13.90;;;19.50;99.90;;;;;;5036059;28;20965;-77
2022/05/17 07:19:02;;;;;;;18.83;13.57;;;19.70;99.90;;;;;;5034964;28;20855;-76
2022/05/17 07:21:29;;;;;;;17.60;14.10;;;19.90;99.90;;;;;;5034419;28;20469;-76
2022/05/17 07:23:56;;;;;;;18.90;13.73;;;20.00;99.90;;;;;;5034198;28;20477;-76
2022/05/17 07:26:23;;;;;;;24.17;14.03;;;20.10;99.90;;;;;;5036618;28;20864;-76
2022/05/17 07:28:49;;;;;;;23.07;15.07;;;20.30;99.90;;;;;;5054254;28;20448;-76
2022/05/17 07:31:16;;;;;;;19.80;13.60;;;20.40;99.90;;;;;;5054301;28;20480;-77
2022/05/17 07:33:44;;;;;;;18.87;13.30;;;20.50;99.90;;;;;;5053597;28;20522;-77
2022/05/17 07:36:12;;;;;;;23.67;13.90;;;20.60;99.90;;;;;;5045632;28;20468;-77
2022/05/17 07:38:40;;;;;;;19.97;14.10;;;20.80;99.90;;;;;;5033856;28;20480;-77
2022/05/17 07:41:07;;;;;;;22.77;14.47;;;21.00;99.90;;;;;;5048588;28;20479;-77
2022/05/17 07:43:34;;;;;;;26.23;13.67;;;21.10;99.90;;;;;;5033568;28;20530;-77
2022/05/17 07:46:01;;;;;;;23.20;13.90;;;21.30;99.90;;;;;;5047734;28;20456;-77
2022/05/17 07:48:28;;;;;;;33.77;14.80;;;21.50;99.90;;;;;;5056665;28;20904;-77
2022/05/17 07:50:54;;;;;;;22.90;13.07;;;21.50;99.90;;;;;;5056624;28;20456;-77
2022/05/17 07:53:22;;;;;;;23.53;13.40;;;21.60;99.90;;;;;;5055852;28;20459;-77
2022/05/17 07:55:51;;;;;;;18.90;11.70;;;21.50;99.90;;;;;;5046623;28;21125;-77
2022/05/17 07:58:18;;;;;;;16.13;11.73;;;21.70;99.90;;;;;;5036326;28;20501;-78
2022/05/17 08:00:45;;;;;;;22.07;11.17;;;21.90;99.90;;;;;;5037761;28;20522;-77
2022/05/17 08:03:16;;;;;;;17.20;11.77;;;21.90;99.90;;;;;;5051834;28;20475;-77
2022/05/17 08:05:43;;;;;;;19.97;11.70;;;21.90;99.90;;;;;;5054323;28;20839;-77
2022/05/17 08:08:10;;;;;;;19.13;11.47;;;21.80;99.90;;;;;;5053999;28;20532;-77
2022/05/17 08:10:38;;;;;;;15.67;9.70;;;21.80;99.90;;;;;;5051924;28;20437;-77
2022/05/17 08:13:07;;;;;;;20.10;11.23;;;21.90;99.90;;;;;;5013949;28;20512;-77
2022/05/17 08:15:34;;;;;;;21.80;10.73;;;22.10;99.90;;;;;;5017938;28;20454;-78
2022/05/17 08:18:02;;;;;;;15.17;10.20;;;22.40;99.90;;;;;;5039296;28;20453;-78
2022/05/17 08:20:29;;;;;;;18.50;9.93;;;22.50;99.90;;;;;;5040840;28;20456;-78
2022/05/17 08:22:56;;;;;;;13.83;9.00;;;22.60;99.90;;;;;;5035740;28;21035;-77
2022/05/17 08:28:09;;;;;;;16.20;9.13;;;22.70;99.90;;;;;;5034097;28;20428;-78
2022/05/17 08:30:37;;;;;;;19.40;10.33;;;22.60;99.90;;;;;;5039269;28;20449;-77
2022/05/17 08:33:16;;;;;;;18.60;9.53;;;22.40;99.90;;;;;;5034634;28;20465;-77
2022/05/17 08:35:45;;;;;;;16.47;10.33;;;22.70;99.90;;;;;;5040526;28;21012;-77
2022/05/17 08:38:14;;;;;;;15.30;9.10;;;22.70;99.90;;;;;;5054501;28;20480;-77
2022/05/17 08:41:01;;;;;;;17.80;9.63;;;22.80;99.90;;;;;;5054024;28;20938;-77
2022/05/17 08:43:38;;;;;;;13.57;8.77;;;23.10;99.90;;;;;;5036493;28;21058;-77
2022/05/17 08:46:10;;;;;;;17.50;10.67;;;23.40;99.90;;;;;;5032889;28;20456;-77
2022/05/17 08:48:48;;;;;;;18.67;11.57;;;23.40;99.90;;;;;;5037614;28;20506;-77
2022/05/17 08:51:24;;;;;;;18.50;10.93;;;23.10;99.90;;;;;;5035203;28;20476;-77
2022/05/17 08:53:51;;;;;;;14.63;9.67;;;22.90;99.90;;;;;;5032249;28;20449;-77
2022/05/17 08:56:18;;;;;;;19.67;10.60;;;22.90;99.90;;;;;;5032333;28;20450;-77
2022/05/17 08:58:50;;;;;;;16.27;10.10;;;23.10;99.90;;;;;;5050480;28;20487;-77
2022/05/17 09:01:24;;;;;;;17.03;10.53;;;22.90;99.90;;;;;;5051418;28;20983;-76
2022/05/17 09:04:01;;;;;;;14.00;8.87;;;22.70;99.90;;;;;;5032690;28;20483;-77
2022/05/17 09:06:33;;;;;;;23.20;10.40;;;22.70;99.90;;;;;;5031876;28;20453;-76
2022/05/17 09:09:04;;;;;;;16.90;10.60;;;22.50;99.90;;;;;;5039310;28;20460;-76
2022/05/17 09:11:38;;;;;;;14.30;10.83;;;22.50;99.90;;;;;;5052044;28;20567;-76
2022/05/17 09:14:12;;;;;;;18.73;10.27;;;22.50;99.90;;;;;;5047013;28;20480;-76
2022/05/17 09:16:41;;;;;;;17.80;10.00;;;22.50;99.90;;;;;;5030188;28;20457;-74
2022/05/17 09:19:09;;;;;;;20.87;10.33;;;22.60;99.90;;;;;;5030046;28;20539;-75
2022/05/17 09:21:37;;;;;;;19.67;9.90;;;22.80;99.90;;;;;;5032342;28;20475;-75
2022/05/17 09:24:06;;;;;;;18.03;10.40;;;23.10;99.90;;;;;;5032670;28;20495;-75
2022/05/17 09:26:35;;;;;;;16.17;9.87;;;23.30;99.90;;;;;;5031713;28;20441;-75
2022/05/17 09:29:12;;;;;;;17.53;9.10;;;23.40;99.90;;;;;;5032258;28;21004;-74
2022/05/17 09:31:39;;;;;;;13.03;9.30;;;23.40;99.90;;;;;;5033982;28;20503;-75
2022/05/17 09:34:09;;;;;;;17.23;9.00;;;23.50;99.90;;;;;;5031873;28;20465;-75
2022/05/17 09:36:43;;;;;;;14.70;9.83;;;23.40;99.90;;;;;;5031292;28;20881;-75
2022/05/17 09:39:11;;;;;;;14.03;9.90;;;23.30;99.90;;;;;;5032488;28;20496;-74
2022/05/17 09:41:41;;;;;;;15.20;8.70;;;23.30;99.90;;;;;;5031919;28;20477;-75
2022/05/17 09:44:14;;;;;;;17.83;9.97;;;23.50;99.90;;;;;;5032452;28;20449;-74
2022/05/17 09:46:45;;;;;;;14.67;8.73;;;23.60;99.90;;;;;;5032192;28;20507;-75
2022/05/17 09:52:34;;;;;;;14.03;8.80;;;23.70;99.90;;;;;;5041720;28;20468;-74
2022/05/17 09:55:13;;;;;;;12.97;8.13;;;23.80;99.90;;;;;;5050391;28;20491;-74
2022/05/17 09:57:53;;;;;;;10.27;7.13;;;23.90;99.90;;;;;;5031823;28;20528;-74
2022/05/17 10:00:25;;;;;;;11.90;6.83;;;24.30;99.90;;;;;;5031397;28;20905;-74
2022/05/17 10:02:55;;;;;;;9.13;6.20;;;25.00;99.90;;;;;;5031654;28;20466;-75
2022/05/17 10:05:25;;;;;;;10.57;6.23;;;25.20;99.90;;;;;;5030384;28;20454;-74
2022/05/17 10:07:58;;;;;;;13.50;6.50;;;25.50;99.90;;;;;;5031560;28;20446;-74
2022/05/17 10:10:32;;;;;;;13.07;5.93;;;25.50;99.90;;;;;;5031150;28;20442;-74
2022/05/17 10:13:06;;;;;;;10.43;5.97;;;25.70;99.90;;;;;;5032905;28;20540;-74
2022/05/17 10:15:38;;;;;;;13.00;5.53;;;26.10;99.90;;;;;;5030854;28;21012;-74
2022/05/17 10:18:16;;;;;;;8.50;5.77;;;26.20;99.90;;;;;;5031815;28;20442;-74
2022/05/17 10:20:47;;;;;;;11.97;5.80;;;26.50;99.90;;;;;;5029059;28;20485;-74
2022/05/17 10:23:25;;;;;;;10.40;5.70;;;26.70;99.90;;;;;;5032633;28;20453;-74
2022/05/17 10:25:54;;;;;;;8.80;5.20;;;26.40;99.90;;;;;;5031263;28;20466;-74
2022/05/17 10:28:34;;;;;;;7.13;4.60;;;26.70;99.90;;;;;;5031239;28;20450;-74
2022/05/17 10:31:11;;;;;;;11.60;5.10;;;26.90;99.90;;;;;;5031057;28;20502;-75
2022/05/17 10:33:45;;;;;;;8.07;4.80;;;27.00;99.90;;;;;;5028012;28;20938;-74
2022/05/17 10:36:19;;;;;;;7.70;5.27;;;27.20;99.90;;;;;;5032299;28;20453;-74
2022/05/17 10:39:03;;;;;;;9.63;4.70;;;27.40;99.90;;;;;;5033664;28;20514;-74
2022/05/17 10:41:30;;;;;;;13.53;5.40;;;27.40;99.90;;;;;;5032265;28;20478;-75
2022/05/17 10:43:58;;;;;;;8.13;4.87;;;27.50;99.90;;;;;;5039664;28;20511;-74
2022/05/17 10:46:30;;;;;;;15.37;6.57;;;27.30;99.90;;;;;;5031573;28;20453;-75
2022/05/17 10:49:06;;;;;;;8.10;5.97;;;27.00;99.90;;;;;;5031320;28;20536;-75
2022/05/17 10:51:40;;;;;;;10.03;5.70;;;26.80;99.90;;;;;;5040204;28;20541;-75
2022/05/17 10:54:13;;;;;;;6.57;4.80;;;26.90;99.90;;;;;;5030563;28;20453;-74
2022/05/17 10:56:49;;;;;;;10.03;4.57;;;26.90;99.90;;;;;;5031288;28;21008;-75
2022/05/17 10:59:27;;;;;;;11.20;6.17;;;27.00;99.90;;;;;;5031459;28;20538;-75
2022/05/17 11:02:07;;;;;;;8.17;4.83;;;27.00;99.90;;;;;;5029316;28;20469;-75
2022/05/17 11:05:02;;;;;;;6.93;5.00;;;26.90;99.90;;;;;;5028241;28;20449;-73
2022/05/17 11:07:48;;;;;;;8.80;4.30;;;26.80;99.90;;;;;;5030429;28;20460;-73
2022/05/17 11:10:27;;;;;;;5.90;4.67;;;27.00;99.90;;;;;;5030707;28;20438;-73
2022/05/17 11:12:57;;;;;;;11.33;5.17;;;27.10;99.90;;;;;;5030105;28;21044;-74
2022/05/17 11:15:32;;;;;;;10.00;4.63;;;27.60;99.90;;;;;;5030340;28;20438;-73
2022/05/17 11:18:08;;;;;;;11.07;5.43;;;28.00;99.90;;;;;;5029757;28;20498;-73
2022/05/17 11:20:38;;;;;;;9.50;4.43;;;27.60;99.90;;;;;;5030643;28;21009;-74
2022/05/17 11:23:22;;;;;;;17.80;5.77;;;27.50;99.90;;;;;;5030614;28;20469;-73
2022/05/17 11:25:59;;;;;;;7.63;4.70;;;27.20;99.90;;;;;;5030799;28;20452;-73
2022/05/17 11:28:44;;;;;;;11.53;5.77;;;27.70;99.90;;;;;;5030840;28;20446;-73
2022/05/17 11:31:17;;;;;;;11.93;5.63;;;27.70;99.90;;;;;;5030662;28;20477;-75
2022/05/17 11:33:45;;;;;;;9.03;5.83;;;27.50;99.90;;;;;;5029792;28;20857;-74
2022/05/17 11:36:14;;;;;;;10.60;5.03;;;27.10;99.90;;;;;;5030105;28;20824;-73
2022/05/17 11:38:46;;;;;;;5.97;5.20;;;26.50;99.90;;;;;;5030751;28;20453;-73
2022/05/17 11:41:17;;;;;;;13.20;6.00;;;26.30;99.90;;;;;;5030382;28;20481;-73
2022/05/17 11:43:50;;;;;;;5.67;5.07;;;26.00;99.90;;;;;;5029488;28;20949;-73
2022/05/17 11:46:55;;;;;;;17.53;4.53;;;25.60;99.90;;;;;;5030851;28;20942;-74
2022/05/17 11:49:31;;;;;;;9.93;4.10;;;25.40;99.90;;;;;;5029856;28;21032;-73
2022/05/17 11:52:30;;;;;;;8.67;4.67;;;24.90;99.90;;;;;;5029535;28;20483;-74
2022/05/17 11:54:59;;;;;;;8.53;5.10;;;24.60;99.90;;;;;;5029936;28;20519;-74
2022/05/17 11:57:59;;;;;;;10.60;4.33;;;24.40;99.90;;;;;;5027938;28;20456;-74
2022/05/17 12:00:43;;;;;;;8.63;4.27;;;24.10;99.90;;;;;;5030493;28;20534;-74
2022/05/17 12:03:42;;;;;;;8.73;4.13;;;24.10;99.90;;;;;;5031968;28;20543;-74
2022/05/17 12:06:42;;;;;;;8.80;4.40;;;24.30;99.90;;;;;;5031631;28;20442;-74
2022/05/17 12:09:14;;;;;;;6.90;4.40;;;24.40;99.90;;;;;;5034172;28;20791;-74
2022/05/17 12:11:54;;;;;;;7.90;4.47;;;24.40;99.90;;;;;;5036215;28;20543;-74
2022/05/17 12:14:27;;;;;;;6.90;4.90;;;24.60;99.90;;;;;;5032695;28;20453;-75
2022/05/17 12:16:58;;;;;;;8.83;4.33;;;25.10;99.90;;;;;;5033612;28;20884;-75
2022/05/17 12:19:32;;;;;;;7.77;5.10;;;25.70;99.90;;;;;;5033759;28;20516;-75
2022/05/17 12:22:07;;;;;;;6.40;4.43;;;26.30;99.90;;;;;;5033769;28;20561;-75
2022/05/17 12:24:47;;;;;;;9.57;4.90;;;26.20;99.90;;;;;;5033477;28;20503;-74
2022/05/17 12:27:22;;;;;;;5.93;4.80;;;26.10;99.90;;;;;;5032176;28;20457;-75
2022/05/17 12:32:39;;;;;;;8.80;4.23;;;26.50;99.90;;;;;;5033063;28;20522;-75
2022/05/17 12:35:08;;;;;;;7.43;3.60;;;26.70;99.90;;;;;;5032604;28;20449;-75
2022/05/17 12:37:41;;;;;;;4.03;3.37;;;26.80;99.90;;;;;;5032954;28;20524;-75
2022/05/17 12:43:07;;;;;;;5.77;3.77;;;26.90;99.90;;;;;;5032471;28;20953;-74
2022/05/17 12:45:38;;;;;;;7.10;4.60;;;26.90;99.90;;;;;;5032973;28;20824;-74
2022/05/17 12:48:27;;;;;;;5.67;4.03;;;26.30;99.90;;;;;;5034229;28;20451;-74
2022/05/17 12:50:59;;;;;;;8.43;4.23;;;25.90;99.90;;;;;;5013735;28;20450;-74
2022/05/17 12:53:30;;;;;;;5.00;3.70;;;25.50;99.90;;;;;;5037259;28;20463;-75
2022/05/17 12:56:03;;;;;;;9.70;4.00;;;25.30;99.90;;;;;;5044278;28;20810;-75
2022/05/17 12:58:30;;;;;;;8.07;4.00;;;25.30;99.90;;;;;;5033209;28;20831;-75